createdAt,value
2019-03-03T00:00:09.059Z,998.82
2019-03-03T00:01:09.049Z,998.85
2019-03-03T00:02:09.074Z,998.80
2019-03-03T00:03:09.033Z,998.85
2019-03-03T00:04:09.048Z,998.80
2019-03-03T00:05:09.008Z,998.82
2019-03-03T00:06:08.999Z,998.85
2019-03-03T00:07:08.984Z,998.80
2019-03-03T00:08:09.019Z,998.84
2019-03-03T00:09:09.012Z,998.83
2019-03-03T00:10:08.953Z,998.82
2019-03-03T00:11:08.943Z,998.87
2019-03-03T00:12:09.016Z,998.86
2019-03-03T00:13:08.925Z,998.87
2019-03-03T00:14:08.911Z,998.87
2019-03-03T00:15:08.919Z,998.85
2019-03-03T00:16:08.933Z,998.90
2019-03-03T00:17:08.885Z,998.86
2019-03-03T00:18:08.878Z,998.89
2019-03-03T00:19:08.851Z,998.91
2019-03-03T00:20:08.845Z,998.87
2019-03-03T00:21:08.846Z,998.86
2019-03-03T00:22:08.817Z,998.87
2019-03-03T00:23:08.845Z,998.83
2019-03-03T00:24:08.802Z,998.87
2019-03-03T00:25:08.786Z,998.89
2019-03-03T00:26:08.773Z,998.88
2019-03-03T00:27:08.769Z,998.86
2019-03-03T00:28:08.752Z,998.92
2019-03-03T00:29:08.783Z,998.83
2019-03-03T00:30:08.739Z,998.90
2019-03-03T00:31:08.732Z,998.86
2019-03-03T00:32:08.707Z,998.85
2019-03-03T00:33:08.700Z,998.80
2019-03-03T00:34:08.710Z,998.83
2019-03-03T00:35:08.677Z,998.78
2019-03-03T00:36:08.665Z,998.78
2019-03-03T00:37:08.653Z,998.78
2019-03-03T00:38:08.643Z,998.79
2019-03-03T00:39:08.650Z,998.82
2019-03-03T00:40:08.622Z,998.81
2019-03-03T00:41:08.609Z,998.78
2019-03-03T00:42:08.608Z,998.75
2019-03-03T00:43:08.609Z,998.77
2019-03-03T00:44:08.579Z,998.67
2019-03-03T00:45:08.574Z,998.73
2019-03-03T00:46:08.560Z,998.67
2019-03-03T00:47:08.549Z,998.64
2019-03-03T00:48:08.558Z,998.70
2019-03-03T00:49:08.541Z,998.65
2019-03-03T00:50:08.514Z,998.63
2019-03-03T00:51:08.498Z,998.68
2019-03-03T00:52:08.509Z,998.62
2019-03-03T00:53:08.527Z,998.68
2019-03-03T00:54:08.501Z,998.65
2019-03-03T00:55:08.463Z,998.62
2019-03-03T00:56:08.450Z,998.60
2019-03-03T00:57:08.459Z,998.56
2019-03-03T00:58:08.425Z,998.60
2019-03-03T00:59:08.433Z,998.64
2019-03-03T01:00:08.409Z,998.57
2019-03-03T01:01:08.396Z,998.60
2019-03-03T01:02:08.387Z,998.61
2019-03-03T01:03:08.376Z,998.65
2019-03-03T01:04:08.383Z,998.56
2019-03-03T01:05:08.364Z,998.51
2019-03-03T01:06:08.346Z,998.48
2019-03-03T01:07:08.334Z,998.47
2019-03-03T01:08:08.317Z,998.44
2019-03-03T01:09:08.326Z,998.47
2019-03-03T01:10:08.310Z,998.46
2019-03-03T01:11:08.305Z,998.40
2019-03-03T01:12:08.269Z,998.40
2019-03-03T01:13:08.259Z,998.37
2019-03-03T01:14:08.257Z,998.37
2019-03-03T01:15:08.259Z,998.40
2019-03-03T01:16:08.232Z,998.39
2019-03-03T01:17:08.219Z,998.40
2019-03-03T01:18:08.207Z,998.42
2019-03-03T01:19:08.195Z,998.47
2019-03-03T01:20:08.224Z,998.41
2019-03-03T01:21:08.198Z,998.40
2019-03-03T01:22:08.171Z,998.43
2019-03-03T01:23:08.150Z,998.42
2019-03-03T01:24:08.167Z,998.46
2019-03-03T01:25:08.133Z,998.44
2019-03-03T01:26:08.143Z,998.40
2019-03-03T01:27:08.110Z,998.43
2019-03-03T01:28:08.101Z,998.45
2019-03-03T01:29:08.119Z,998.38
2019-03-03T01:30:08.075Z,998.38
2019-03-03T01:31:08.065Z,998.40
2019-03-03T01:32:08.072Z,998.36
2019-03-03T01:33:08.043Z,998.36
2019-03-03T01:34:08.047Z,998.33
2019-03-03T01:35:08.054Z,998.34
2019-03-03T01:36:08.043Z,998.31
2019-03-03T01:37:07.998Z,998.34
2019-03-03T01:38:07.992Z,998.31
2019-03-03T01:39:08.009Z,998.37
2019-03-03T01:40:07.992Z,998.35
2019-03-03T01:41:07.960Z,998.30
2019-03-03T01:42:07.949Z,998.27
2019-03-03T01:43:07.941Z,998.34
2019-03-03T01:44:07.924Z,998.33
2019-03-03T01:45:07.939Z,998.31
2019-03-03T01:46:07.911Z,998.29
2019-03-03T01:47:07.890Z,998.30
2019-03-03T01:48:07.886Z,998.26
2019-03-03T01:49:07.876Z,998.21
2019-03-03T01:50:07.865Z,998.21
2019-03-03T01:51:07.875Z,998.22
2019-03-03T01:52:07.882Z,998.19
2019-03-03T01:53:07.832Z,998.20
2019-03-03T01:54:08.641Z,998.18
2019-03-03T01:55:07.807Z,998.24
2019-03-03T01:56:07.817Z,998.24
2019-03-03T01:57:07.782Z,998.17
2019-03-03T01:58:07.793Z,998.15
2019-03-03T01:59:07.759Z,998.19
2019-03-03T02:00:07.758Z,998.20
2019-03-03T02:01:07.771Z,998.19
2019-03-03T02:02:07.747Z,998.24
2019-03-03T02:03:07.731Z,998.31
2019-03-03T02:04:07.747Z,998.24
2019-03-03T02:05:07.701Z,998.25
2019-03-03T02:06:07.682Z,998.21
2019-03-03T02:07:07.690Z,998.20
2019-03-03T02:08:07.686Z,998.22
2019-03-03T02:09:07.652Z,998.22
2019-03-03T02:10:07.644Z,998.23
2019-03-03T02:11:07.656Z,998.21
2019-03-03T02:12:07.640Z,998.24
2019-03-03T02:13:07.620Z,998.20
2019-03-03T02:14:07.605Z,998.20
2019-03-03T02:15:07.591Z,998.20
2019-03-03T02:16:07.575Z,998.24
2019-03-03T02:17:07.627Z,998.27
2019-03-03T02:18:07.571Z,998.22
2019-03-03T02:19:07.562Z,998.26
2019-03-03T02:20:07.531Z,998.25
2019-03-03T02:21:07.526Z,998.28
2019-03-03T02:22:07.542Z,998.28
2019-03-03T02:23:07.516Z,998.23
2019-03-03T02:24:07.491Z,998.21
2019-03-03T02:25:07.507Z,998.26
2019-03-03T02:26:07.470Z,998.24
2019-03-03T02:27:07.455Z,998.17
2019-03-03T02:28:07.479Z,998.20
2019-03-03T02:29:07.446Z,998.22
2019-03-03T02:30:07.469Z,998.13
2019-03-03T02:31:07.438Z,998.19
2019-03-03T02:32:07.400Z,998.22
2019-03-03T02:33:07.435Z,998.14
2019-03-03T02:34:07.387Z,998.11
2019-03-03T02:35:07.369Z,998.18
2019-03-03T02:36:07.360Z,998.12
2019-03-03T02:37:07.355Z,998.12
2019-03-03T02:38:07.370Z,998.10
2019-03-03T02:39:07.342Z,998.13
2019-03-03T02:40:07.340Z,998.10
2019-03-03T02:41:07.307Z,998.09
2019-03-03T02:42:07.296Z,998.15
2019-03-03T02:43:07.319Z,998.08
2019-03-03T02:44:07.288Z,998.05
2019-03-03T02:45:07.271Z,998.06
2019-03-03T02:46:07.254Z,998.09
2019-03-03T02:47:07.244Z,998.03
2019-03-03T02:48:07.227Z,998.04
2019-03-03T02:49:07.242Z,998.01
2019-03-03T02:50:07.223Z,998.05
2019-03-03T02:51:07.204Z,998.06
2019-03-03T02:52:07.184Z,998.07
2019-03-03T02:53:07.177Z,998.04
2019-03-03T02:54:07.191Z,998.01
2019-03-03T02:55:07.179Z,998.08
2019-03-03T02:56:07.151Z,998.02
2019-03-03T02:57:07.137Z,998.05
2019-03-03T02:58:07.124Z,998.04
2019-03-03T02:59:07.105Z,998.00
2019-03-03T03:00:07.136Z,998.04
2019-03-03T03:01:07.111Z,998.06
2019-03-03T03:02:07.095Z,997.99
2019-03-03T03:03:07.074Z,998.01
2019-03-03T03:04:07.077Z,998.02
2019-03-03T03:05:07.061Z,998.08
2019-03-03T03:06:07.077Z,998.06
2019-03-03T03:07:07.026Z,998.02
2019-03-03T03:08:07.024Z,998.12
2019-03-03T03:09:07.004Z,998.05
2019-03-03T03:10:07.081Z,998.06
2019-03-03T03:11:07.018Z,998.06
2019-03-03T03:12:07.006Z,998.09
2019-03-03T03:13:06.974Z,998.10
2019-03-03T03:14:06.945Z,998.07
2019-03-03T03:15:06.939Z,998.06
2019-03-03T03:16:06.966Z,998.06
2019-03-03T03:17:06.946Z,998.05
2019-03-03T03:18:06.904Z,998.02
2019-03-03T03:19:06.899Z,998.06
2019-03-03T03:20:06.880Z,998.05
2019-03-03T03:21:06.870Z,998.08
2019-03-03T03:22:06.886Z,998.02
2019-03-03T03:23:06.939Z,998.07
2019-03-03T03:24:06.839Z,998.05
2019-03-03T03:25:06.833Z,998.02
2019-03-03T03:26:06.816Z,998.02
2019-03-03T03:27:07.364Z,998.02
2019-03-03T03:28:06.791Z,998.00
2019-03-03T03:29:06.785Z,998.04
2019-03-03T03:30:06.802Z,998.01
2019-03-03T03:31:06.763Z,998.01
2019-03-03T03:32:06.757Z,998.04
2019-03-03T03:33:06.756Z,998.02
2019-03-03T03:34:06.745Z,997.98
2019-03-03T03:35:06.727Z,997.97
2019-03-03T03:36:06.713Z,997.93
2019-03-03T03:37:06.708Z,998.01
2019-03-03T03:38:06.707Z,997.93
2019-03-03T03:39:06.694Z,997.88
2019-03-03T03:40:06.664Z,997.90
2019-03-03T03:41:06.653Z,997.94
2019-03-03T03:42:06.722Z,997.89
2019-03-03T03:43:06.655Z,997.86
2019-03-03T03:44:06.641Z,997.86
2019-03-03T03:45:06.628Z,997.88
2019-03-03T03:46:06.598Z,997.90
2019-03-03T03:47:06.588Z,997.98
2019-03-03T03:48:06.580Z,997.88
2019-03-03T03:49:06.599Z,997.85
2019-03-03T03:50:06.633Z,997.83
2019-03-03T03:51:06.554Z,997.88
2019-03-03T03:52:06.531Z,997.83
2019-03-03T03:53:06.534Z,997.83
2019-03-03T03:54:06.544Z,997.85
2019-03-03T03:55:06.517Z,997.77
2019-03-03T03:56:06.510Z,997.72
2019-03-03T03:57:06.496Z,997.78
2019-03-03T03:58:06.467Z,997.79
2019-03-03T03:59:06.482Z,997.79
2019-03-03T04:00:06.447Z,997.82
2019-03-03T04:01:06.436Z,997.73
2019-03-03T04:02:06.444Z,997.70
2019-03-03T04:03:06.459Z,997.75
2019-03-03T04:04:06.439Z,997.70
2019-03-03T04:05:06.418Z,997.72
2019-03-03T04:06:06.386Z,997.67
2019-03-03T04:07:06.375Z,997.70
2019-03-03T04:08:06.370Z,997.73
2019-03-03T04:09:06.349Z,997.70
2019-03-03T04:10:06.414Z,997.67
2019-03-03T04:11:06.329Z,997.68
2019-03-03T04:12:06.320Z,997.60
2019-03-03T04:13:06.310Z,997.54
2019-03-03T04:14:06.308Z,997.57
2019-03-03T04:15:06.304Z,997.60
2019-03-03T04:16:06.282Z,997.63
2019-03-03T04:17:06.300Z,997.58
2019-03-03T04:18:06.260Z,997.63
2019-03-03T04:19:06.251Z,997.63
2019-03-03T04:20:06.239Z,997.54
2019-03-03T04:21:06.228Z,997.46
2019-03-03T04:22:06.210Z,997.47
2019-03-03T04:23:06.227Z,997.41
2019-03-03T04:24:06.214Z,997.44
2019-03-03T04:25:06.176Z,997.48
2019-03-03T04:26:06.160Z,997.36
2019-03-03T04:27:06.151Z,997.43
2019-03-03T04:28:06.144Z,997.34
2019-03-03T04:29:06.143Z,997.28
2019-03-03T04:30:06.144Z,997.33
2019-03-03T04:31:06.111Z,997.29
2019-03-03T04:32:06.103Z,997.27
2019-03-03T04:33:06.084Z,997.36
2019-03-03T04:34:06.076Z,997.29
2019-03-03T04:35:06.104Z,997.25
2019-03-03T04:36:06.049Z,997.27
2019-03-03T04:37:06.057Z,997.21
2019-03-03T04:38:06.033Z,997.19
2019-03-03T04:39:06.022Z,997.14
2019-03-03T04:40:06.046Z,997.23
2019-03-03T04:41:06.054Z,997.16
2019-03-03T04:42:05.993Z,997.13
2019-03-03T04:43:05.974Z,997.18
2019-03-03T04:44:05.972Z,997.23
2019-03-03T04:45:05.957Z,997.15
2019-03-03T04:46:05.969Z,997.17
2019-03-03T04:47:05.938Z,997.18
2019-03-03T04:48:05.937Z,997.15
2019-03-03T04:49:05.923Z,997.18
2019-03-03T04:50:05.914Z,997.07
2019-03-03T04:51:05.910Z,997.07
2019-03-03T04:52:05.891Z,997.11
2019-03-03T04:53:05.870Z,997.09
2019-03-03T04:54:05.861Z,997.12
2019-03-03T04:55:05.843Z,997.11
2019-03-03T04:56:05.889Z,997.10
2019-03-03T04:57:05.833Z,997.03
2019-03-03T04:58:05.825Z,997.01
2019-03-03T04:59:05.815Z,996.96
2019-03-03T05:00:05.795Z,996.99
2019-03-03T05:01:05.779Z,997.05
2019-03-03T05:02:05.793Z,996.93
2019-03-03T05:03:05.782Z,996.97
2019-03-03T05:04:05.760Z,996.99
2019-03-03T05:05:05.780Z,996.93
2019-03-03T05:06:05.736Z,996.97
2019-03-03T05:07:05.718Z,996.95
2019-03-03T05:08:05.713Z,996.93
2019-03-03T05:09:05.720Z,996.87
2019-03-03T05:10:05.711Z,996.94
2019-03-03T05:11:05.680Z,996.93
2019-03-03T05:12:05.669Z,996.97
2019-03-03T05:13:05.669Z,996.95
2019-03-03T05:14:05.639Z,997.00
2019-03-03T05:15:05.697Z,996.91
2019-03-03T05:16:05.620Z,996.94
2019-03-03T05:17:05.608Z,996.84
2019-03-03T05:18:05.603Z,996.85
2019-03-03T05:19:05.582Z,996.79
2019-03-03T05:20:05.590Z,996.82
2019-03-03T05:21:05.612Z,996.81
2019-03-03T05:22:05.554Z,996.87
2019-03-03T05:23:05.542Z,996.83
2019-03-03T05:24:05.553Z,996.82
2019-03-03T05:25:05.536Z,996.78
2019-03-03T05:26:05.525Z,996.84
2019-03-03T05:27:05.511Z,996.86
2019-03-03T05:28:05.486Z,996.88
2019-03-03T05:29:05.536Z,996.83
2019-03-03T05:30:05.465Z,996.90
2019-03-03T05:31:05.476Z,996.83
2019-03-03T05:32:05.443Z,996.84
2019-03-03T05:33:05.443Z,996.86
2019-03-03T05:34:05.429Z,996.75
2019-03-03T05:35:05.408Z,996.83
2019-03-03T05:36:05.414Z,996.86
2019-03-03T05:37:05.411Z,996.77
2019-03-03T05:38:05.389Z,996.87
2019-03-03T05:39:05.368Z,996.81
2019-03-03T05:40:05.359Z,996.79
2019-03-03T05:41:05.345Z,996.74
2019-03-03T05:42:05.384Z,996.68
2019-03-03T05:43:05.327Z,996.67
2019-03-03T05:44:05.333Z,996.64
2019-03-03T05:45:05.300Z,996.71
2019-03-03T05:46:05.324Z,996.65
2019-03-03T05:47:05.278Z,996.69
2019-03-03T05:48:05.272Z,996.67
2019-03-03T05:49:05.261Z,996.67
2019-03-03T05:50:05.321Z,996.70
2019-03-03T05:51:05.263Z,996.64
2019-03-03T05:52:05.242Z,996.65
2019-03-03T05:53:05.230Z,996.68
2019-03-03T05:54:05.206Z,996.57
2019-03-03T05:55:05.195Z,996.59
2019-03-03T05:56:05.206Z,996.60
2019-03-03T05:57:05.175Z,996.66
2019-03-03T05:58:05.168Z,996.65
2019-03-03T05:59:05.151Z,996.64
2019-03-03T06:00:05.142Z,996.61
2019-03-03T06:01:05.154Z,996.55
2019-03-03T06:02:05.130Z,996.48
2019-03-03T06:03:05.112Z,996.55
2019-03-03T06:04:05.103Z,996.46
2019-03-03T06:05:05.082Z,996.44
2019-03-03T06:06:05.119Z,996.48
2019-03-03T06:07:05.065Z,996.44
2019-03-03T06:08:05.050Z,996.46
2019-03-03T06:09:05.041Z,996.38
2019-03-03T06:10:05.035Z,996.51
2019-03-03T06:11:05.025Z,996.55
2019-03-03T06:12:05.028Z,996.54
2019-03-03T06:13:04.997Z,996.54
2019-03-03T06:14:04.993Z,996.53
2019-03-03T06:15:04.973Z,996.53
2019-03-03T06:16:04.971Z,996.43
2019-03-03T06:17:04.976Z,996.39
2019-03-03T06:18:04.942Z,996.37
2019-03-03T06:19:04.975Z,996.42
2019-03-03T06:20:04.926Z,996.37
2019-03-03T06:21:04.920Z,996.43
2019-03-03T06:22:04.928Z,996.41
2019-03-03T06:23:04.908Z,996.37
2019-03-03T06:24:04.877Z,996.41
2019-03-03T06:25:04.903Z,996.47
2019-03-03T06:26:04.860Z,996.44
2019-03-03T06:27:04.848Z,996.40
2019-03-03T06:28:04.886Z,996.42
2019-03-03T06:29:04.827Z,996.42
2019-03-03T06:30:05.530Z,996.40
2019-03-03T06:31:04.808Z,996.44
2019-03-03T06:32:04.803Z,996.46
2019-03-03T06:33:04.850Z,996.54
2019-03-03T06:34:04.769Z,996.50
2019-03-03T06:35:04.758Z,996.53
2019-03-03T06:36:04.745Z,996.63
2019-03-03T06:37:04.732Z,996.51
2019-03-03T06:38:04.728Z,996.55
2019-03-03T06:39:04.738Z,996.56
2019-03-03T06:40:04.704Z,996.53
2019-03-03T06:41:04.701Z,996.56
2019-03-03T06:42:04.689Z,996.63
2019-03-03T06:43:04.673Z,996.59
2019-03-03T06:44:04.682Z,996.65
2019-03-03T06:45:04.653Z,996.52
2019-03-03T06:46:04.672Z,996.56
2019-03-03T06:47:04.632Z,996.53
2019-03-03T06:48:04.637Z,996.51
2019-03-03T06:49:04.603Z,996.53
2019-03-03T06:50:04.639Z,996.51
2019-03-03T06:51:04.614Z,996.53
2019-03-03T06:52:04.599Z,996.54
2019-03-03T06:53:04.560Z,996.57
2019-03-03T06:54:04.550Z,996.55
2019-03-03T06:55:04.547Z,996.60
2019-03-03T06:56:04.539Z,996.53
2019-03-03T06:57:04.546Z,996.60
2019-03-03T06:58:04.604Z,996.51
2019-03-03T06:59:04.515Z,996.56
2019-03-03T07:00:04.483Z,996.54
2019-03-03T07:01:04.493Z,996.55
2019-03-03T07:02:04.480Z,996.59
2019-03-03T07:03:04.507Z,996.54
2019-03-03T07:04:04.444Z,996.57
2019-03-03T07:05:04.446Z,996.66
2019-03-03T07:06:04.475Z,996.59
2019-03-03T07:07:04.424Z,996.59
2019-03-03T07:08:04.412Z,996.61
2019-03-03T07:09:04.388Z,996.61
2019-03-03T07:10:04.376Z,996.62
2019-03-03T07:11:04.370Z,996.61
2019-03-03T07:12:04.354Z,996.62
2019-03-03T07:13:04.384Z,996.60
2019-03-03T07:14:04.334Z,996.64
2019-03-03T07:15:04.320Z,996.57
2019-03-03T07:16:04.322Z,996.54
2019-03-03T07:17:04.306Z,996.58
2019-03-03T07:18:04.312Z,996.59
2019-03-03T07:19:04.278Z,996.50
2019-03-03T07:20:04.270Z,996.58
2019-03-03T07:21:04.262Z,996.46
2019-03-03T07:22:06.040Z,996.45
2019-03-03T07:23:04.298Z,996.46
2019-03-03T07:24:04.241Z,996.40
2019-03-03T07:25:04.221Z,996.41
2019-03-03T07:26:04.201Z,996.49
2019-03-03T07:27:04.195Z,996.51
2019-03-03T07:28:04.212Z,996.51
2019-03-03T07:29:04.167Z,996.53
2019-03-03T07:30:04.161Z,996.51
2019-03-03T07:31:04.199Z,996.52
2019-03-03T07:32:04.142Z,996.53
2019-03-03T07:33:04.140Z,996.46
2019-03-03T07:34:04.153Z,996.55
2019-03-03T07:35:04.110Z,996.50
2019-03-03T07:36:04.093Z,996.47
2019-03-03T07:37:04.088Z,996.50
2019-03-03T07:38:04.073Z,996.47
2019-03-03T07:39:04.109Z,996.40
2019-03-03T07:40:04.052Z,996.28
2019-03-03T07:41:04.042Z,996.39
2019-03-03T07:42:04.046Z,996.33
2019-03-03T07:43:04.017Z,996.32
2019-03-03T07:44:04.011Z,996.29
2019-03-03T07:45:04.653Z,996.33
2019-03-03T07:46:03.982Z,996.33
2019-03-03T07:47:04.001Z,996.27
2019-03-03T07:48:03.961Z,996.35
2019-03-03T07:49:03.957Z,996.35
2019-03-03T07:50:03.946Z,996.36
2019-03-03T07:51:03.933Z,996.35
2019-03-03T07:52:03.945Z,996.32
2019-03-03T07:53:03.907Z,996.32
2019-03-03T07:54:03.964Z,996.28
2019-03-03T07:55:03.900Z,996.40
2019-03-03T07:56:03.879Z,996.36
2019-03-03T07:57:03.862Z,996.44
2019-03-03T07:58:03.880Z,996.36
2019-03-03T07:59:03.845Z,996.32
2019-03-03T08:00:03.837Z,996.39
2019-03-03T08:01:03.826Z,996.31
2019-03-03T08:02:03.807Z,996.35
2019-03-03T08:03:03.819Z,996.32
2019-03-03T08:04:03.810Z,996.36
2019-03-03T08:05:03.789Z,996.34
2019-03-03T08:06:03.768Z,996.37
2019-03-03T08:07:03.751Z,996.30
2019-03-03T08:08:03.785Z,996.34
2019-03-03T08:09:03.735Z,996.24
2019-03-03T08:10:03.725Z,996.30
2019-03-03T08:11:03.706Z,996.24
2019-03-03T08:12:03.701Z,996.36
2019-03-03T08:13:09.215Z,996.30
2019-03-03T08:14:04.702Z,996.33
2019-03-03T08:15:03.665Z,996.30
2019-03-03T08:16:03.656Z,996.34
2019-03-03T08:17:03.642Z,996.41
2019-03-03T08:18:03.638Z,996.40
2019-03-03T08:19:03.663Z,996.38
2019-03-03T08:20:03.633Z,996.40
2019-03-03T08:21:03.628Z,996.35
2019-03-03T08:22:03.611Z,996.40
2019-03-03T08:23:03.577Z,996.33
2019-03-03T08:24:03.590Z,996.32
2019-03-03T08:25:03.565Z,996.32
2019-03-03T08:26:03.557Z,996.32
2019-03-03T08:27:03.535Z,996.33
2019-03-03T08:28:03.536Z,996.36
2019-03-03T08:29:03.512Z,996.37
2019-03-03T08:30:03.525Z,996.36
2019-03-03T08:31:03.493Z,996.36
2019-03-03T08:32:03.490Z,996.33
2019-03-03T08:33:03.481Z,996.40
2019-03-03T08:34:03.469Z,996.36
2019-03-03T08:35:03.482Z,996.29
2019-03-03T08:36:04.408Z,996.28
2019-03-03T08:37:03.456Z,996.26
2019-03-03T08:38:03.412Z,996.26
2019-03-03T08:39:03.401Z,996.30
2019-03-03T08:40:03.466Z,996.32
2019-03-03T08:41:03.409Z,996.25
2019-03-03T08:42:03.403Z,996.27
2019-03-03T08:43:04.221Z,996.30
2019-03-03T08:44:03.350Z,996.28
2019-03-03T08:45:03.354Z,996.28
2019-03-03T08:46:03.400Z,996.28
2019-03-03T08:47:03.322Z,996.25
2019-03-03T08:48:03.304Z,996.23
2019-03-03T08:49:03.296Z,996.26
2019-03-03T08:50:03.282Z,996.25
2019-03-03T08:51:03.287Z,996.31
2019-03-03T08:52:03.265Z,996.14
2019-03-03T08:53:03.273Z,996.11
2019-03-03T08:54:03.239Z,996.21
2019-03-03T08:55:03.248Z,996.26
2019-03-03T08:56:03.245Z,996.21
2019-03-03T08:57:03.218Z,996.26
2019-03-03T08:58:03.221Z,996.28
2019-03-03T08:59:03.182Z,996.27
2019-03-03T09:00:03.177Z,996.25
2019-03-03T09:01:03.191Z,996.34
2019-03-03T09:02:03.234Z,996.31
2019-03-03T09:03:03.142Z,996.30
2019-03-03T09:04:03.134Z,996.30
2019-03-03T09:05:03.119Z,996.34
2019-03-03T09:06:03.126Z,996.37
2019-03-03T09:07:03.097Z,996.26
2019-03-03T09:08:03.084Z,996.28
2019-03-03T09:09:03.085Z,996.30
2019-03-03T09:10:03.070Z,996.31
2019-03-03T09:11:03.078Z,996.26
2019-03-03T09:12:03.044Z,996.27
2019-03-03T09:13:03.035Z,996.20
2019-03-03T09:14:03.033Z,996.24
2019-03-03T09:15:03.016Z,996.24
2019-03-03T09:16:03.005Z,996.16
2019-03-03T09:17:03.005Z,996.25
2019-03-03T09:18:02.985Z,996.21
2019-03-03T09:19:02.971Z,996.11
2019-03-03T09:20:02.989Z,996.13
2019-03-03T09:21:02.941Z,995.99
2019-03-03T09:22:04.708Z,996.04
2019-03-03T09:23:02.939Z,995.91
2019-03-03T09:24:02.913Z,995.92
2019-03-03T09:25:02.899Z,995.85
2019-03-03T09:26:02.909Z,995.84
2019-03-03T09:27:02.883Z,995.94
2019-03-03T09:28:02.871Z,995.98
2019-03-03T09:29:02.893Z,995.98
2019-03-03T09:30:02.848Z,995.95
2019-03-03T09:31:02.909Z,995.97
2019-03-03T09:32:02.828Z,996.08
2019-03-03T09:33:02.822Z,996.03
2019-03-03T09:34:02.801Z,995.94
2019-03-03T09:35:02.818Z,996.02
2019-03-03T09:36:02.828Z,996.08
2019-03-03T09:37:02.779Z,995.89
2019-03-03T09:38:02.761Z,995.94
2019-03-03T09:39:02.755Z,995.97
2019-03-03T09:40:09.517Z,995.90
2019-03-03T09:41:03.746Z,995.88
2019-03-03T09:42:02.734Z,995.90
2019-03-03T09:43:02.726Z,996.02
2019-03-03T09:44:02.691Z,995.94
2019-03-03T09:45:02.684Z,995.95
2019-03-03T09:46:02.714Z,996.04
2019-03-03T09:47:02.660Z,995.96
2019-03-03T09:48:02.655Z,996.03
2019-03-03T09:49:02.645Z,995.92
2019-03-03T09:50:02.637Z,995.93
2019-03-03T09:51:02.636Z,995.92
2019-03-03T09:52:02.687Z,995.99
2019-03-03T09:53:02.618Z,995.96
2019-03-03T09:54:02.584Z,996.01
2019-03-03T09:55:02.573Z,995.98
2019-03-03T09:56:02.568Z,995.98
2019-03-03T09:57:02.584Z,995.80
2019-03-03T09:58:02.579Z,995.96
2019-03-03T09:59:02.531Z,995.95
2019-03-03T10:00:02.528Z,996.01
2019-03-03T10:01:02.507Z,995.93
2019-03-03T10:02:02.521Z,995.88
2019-03-03T10:03:02.520Z,995.97
2019-03-03T10:04:02.481Z,995.96
2019-03-03T10:05:02.466Z,995.91
2019-03-03T10:06:02.458Z,995.98
2019-03-03T10:07:02.476Z,995.96
2019-03-03T10:08:02.433Z,995.99
2019-03-03T10:09:02.438Z,996.01
2019-03-03T10:10:02.418Z,995.91
2019-03-03T10:11:02.422Z,995.98
2019-03-03T10:12:02.391Z,996.03
2019-03-03T10:13:02.388Z,996.01
2019-03-03T10:14:02.401Z,995.96
2019-03-03T10:15:02.369Z,995.95
2019-03-03T10:16:02.354Z,995.92
2019-03-03T10:17:02.345Z,995.98
2019-03-03T10:18:02.325Z,996.00
2019-03-03T10:19:07.227Z,995.99
2019-03-03T10:20:03.302Z,995.98
2019-03-03T10:21:03.274Z,995.94
2019-03-03T10:22:02.290Z,995.99
2019-03-03T10:23:02.296Z,995.93
2019-03-03T10:24:02.259Z,995.88
2019-03-03T10:25:02.254Z,995.91
2019-03-03T10:26:02.244Z,995.94
2019-03-03T10:27:02.229Z,995.98
2019-03-03T10:28:02.245Z,995.93
2019-03-03T10:29:02.209Z,995.94
2019-03-03T10:30:02.207Z,995.95
2019-03-03T10:31:02.198Z,995.96
2019-03-03T10:32:02.197Z,995.98
2019-03-03T10:33:02.201Z,995.86
2019-03-03T10:34:02.156Z,995.93
2019-03-03T10:35:02.142Z,995.87
2019-03-03T10:36:02.135Z,995.93
2019-03-03T10:37:02.129Z,996.04
2019-03-03T10:38:02.110Z,995.92
2019-03-03T10:39:02.115Z,996.02
2019-03-03T10:40:02.103Z,995.99
2019-03-03T10:41:02.083Z,995.95
2019-03-03T10:42:02.100Z,996.00
2019-03-03T10:43:02.059Z,995.95
2019-03-03T10:44:02.067Z,995.94
2019-03-03T10:45:02.049Z,995.93
2019-03-03T10:46:02.041Z,995.92
2019-03-03T10:47:02.016Z,995.99
2019-03-03T10:48:01.998Z,996.00
2019-03-03T10:49:02.027Z,996.03
2019-03-03T10:50:01.996Z,996.08
2019-03-03T10:51:01.971Z,996.04
2019-03-03T10:52:01.963Z,996.02
2019-03-03T10:53:01.981Z,996.04
2019-03-03T10:54:01.940Z,996.07
2019-03-03T10:55:01.927Z,995.98
2019-03-03T10:56:01.915Z,996.00
2019-03-03T10:57:01.902Z,996.03
2019-03-03T10:58:01.923Z,996.08
2019-03-03T10:59:01.899Z,996.08
2019-03-03T11:00:01.873Z,996.06
2019-03-03T11:01:01.878Z,996.00
2019-03-03T11:02:01.876Z,996.07
2019-03-03T11:03:02.655Z,995.96
2019-03-03T11:04:01.901Z,995.98
2019-03-03T11:05:01.817Z,995.95
2019-03-03T11:06:01.850Z,995.97
2019-03-03T11:07:01.802Z,995.85
2019-03-03T11:08:01.787Z,996.01
2019-03-03T11:09:01.781Z,995.91
2019-03-03T11:10:01.765Z,995.84
2019-03-03T11:11:01.786Z,995.81
2019-03-03T11:12:01.744Z,995.89
2019-03-03T11:13:01.741Z,995.85
2019-03-03T11:14:01.818Z,995.81
2019-03-03T11:15:01.716Z,995.89
2019-03-03T11:16:01.712Z,995.83
2019-03-03T11:17:01.697Z,995.84
2019-03-03T11:18:01.677Z,995.86
2019-03-03T11:19:01.696Z,995.82
2019-03-03T11:20:01.669Z,995.75
2019-03-03T11:21:01.651Z,995.79
2019-03-03T11:22:01.638Z,995.80
2019-03-03T11:23:01.625Z,995.82
2019-03-03T11:24:01.628Z,995.83
2019-03-03T11:25:01.645Z,995.77
2019-03-03T11:26:01.617Z,995.85
2019-03-03T11:27:01.581Z,995.82
2019-03-03T11:28:01.571Z,995.77
2019-03-03T11:29:01.580Z,995.79
2019-03-03T11:30:01.549Z,995.85
2019-03-03T11:31:01.553Z,995.88
2019-03-03T11:32:01.542Z,995.78
2019-03-03T11:33:01.512Z,995.78
2019-03-03T11:34:01.535Z,995.83
2019-03-03T11:35:01.493Z,995.71
2019-03-03T11:36:01.490Z,995.77
2019-03-03T11:37:01.471Z,995.67
2019-03-03T11:38:01.476Z,995.74
2019-03-03T11:39:01.469Z,995.69
2019-03-03T11:40:01.439Z,995.63
2019-03-03T11:41:01.438Z,995.68
2019-03-03T11:42:01.420Z,995.78
2019-03-03T11:43:01.410Z,995.71
2019-03-03T11:44:01.420Z,995.71
2019-03-03T11:45:01.385Z,995.72
2019-03-03T11:46:01.378Z,995.65
2019-03-03T11:47:01.364Z,995.70
2019-03-03T11:48:04.435Z,995.64
2019-03-03T11:49:01.362Z,995.72
2019-03-03T11:50:01.337Z,995.63
2019-03-03T11:51:01.324Z,995.69
2019-03-03T11:52:01.313Z,995.64
2019-03-03T11:53:01.304Z,995.63
2019-03-03T11:54:01.335Z,995.63
2019-03-03T11:55:01.339Z,995.69
2019-03-03T11:56:01.266Z,995.65
2019-03-03T11:57:01.256Z,995.63
2019-03-03T11:58:01.252Z,995.64
2019-03-03T11:59:01.241Z,995.65
2019-03-03T12:00:01.255Z,995.63
2019-03-03T12:01:01.216Z,995.61
2019-03-03T12:02:01.232Z,995.65
2019-03-03T12:03:01.188Z,995.69
2019-03-03T12:04:01.183Z,995.61
2019-03-03T12:05:01.187Z,995.54
2019-03-03T12:06:01.161Z,995.62
2019-03-03T12:07:01.158Z,995.62
2019-03-03T12:08:01.140Z,995.61
2019-03-03T12:09:01.132Z,995.59
2019-03-03T12:10:01.140Z,995.57
2019-03-03T12:11:01.105Z,995.64
2019-03-03T12:12:01.098Z,995.66
2019-03-03T12:13:01.090Z,995.64
2019-03-03T12:14:01.096Z,995.59
2019-03-03T12:15:01.066Z,995.57
2019-03-03T12:16:01.054Z,995.53
2019-03-03T12:17:01.038Z,995.61
2019-03-03T12:18:01.029Z,995.46
2019-03-03T12:19:01.757Z,995.57
2019-03-03T12:20:01.061Z,995.62
2019-03-03T12:21:01.025Z,995.60
2019-03-03T12:22:00.992Z,995.59
2019-03-03T12:23:00.974Z,995.65
2019-03-03T12:24:01.000Z,995.63
2019-03-03T12:25:00.966Z,995.52
2019-03-03T12:26:00.943Z,995.61
2019-03-03T12:27:00.930Z,995.56
2019-03-03T12:28:00.952Z,995.66